createdAt,value
2018-07-04T00:00:32.368Z,22.45
2018-07-04T00:01:32.388Z,22.45
2018-07-04T00:02:32.410Z,22.44
2018-07-04T00:03:32.434Z,22.46
2018-07-04T00:04:32.455Z,22.46
2018-07-04T00:05:32.487Z,22.42
2018-07-04T00:06:32.509Z,22.42
2018-07-04T00:07:32.528Z,22.46
2018-07-04T00:08:32.549Z,22.42
2018-07-04T00:09:32.576Z,22.41
2018-07-04T00:10:32.605Z,22.38
2018-07-04T00:11:32.625Z,22.45
2018-07-04T00:12:32.650Z,22.42
2018-07-04T00:13:32.668Z,22.42
2018-07-04T00:14:32.693Z,22.42
2018-07-04T00:15:32.719Z,22.46
2018-07-04T00:16:32.741Z,22.46
2018-07-04T00:17:32.758Z,22.45
2018-07-04T00:18:32.782Z,22.49
2018-07-04T00:19:32.807Z,22.42
2018-07-04T00:20:32.830Z,22.41
2018-07-04T00:21:32.864Z,22.45
2018-07-04T00:22:32.883Z,22.42
2018-07-04T00:23:32.899Z,22.46
2018-07-04T00:24:32.923Z,22.36
2018-07-04T00:25:32.980Z,22.38
2018-07-04T00:26:32.974Z,22.48
2018-07-04T00:27:32.999Z,22.39
2018-07-04T00:28:33.021Z,22.36
2018-07-04T00:29:33.041Z,22.45
2018-07-04T00:30:33.067Z,22.36
2018-07-04T00:31:33.091Z,22.42
2018-07-04T00:32:33.111Z,22.39
2018-07-04T00:33:33.130Z,22.44
2018-07-04T00:34:33.159Z,22.35
2018-07-04T00:35:33.183Z,22.45
2018-07-04T00:36:33.202Z,22.45
2018-07-04T00:37:33.232Z,22.39
2018-07-04T00:38:33.254Z,22.39
2018-07-04T00:39:33.274Z,22.38
2018-07-04T00:40:33.296Z,22.39
2018-07-04T00:41:33.323Z,22.42
2018-07-04T00:42:33.347Z,22.41
2018-07-04T00:43:33.373Z,22.39
2018-07-04T00:44:33.391Z,22.36
2018-07-04T00:45:33.410Z,22.39
2018-07-04T00:46:33.434Z,22.35
2018-07-04T00:47:33.462Z,22.41
2018-07-04T00:48:33.487Z,22.41
2018-07-04T00:49:33.504Z,22.30
2018-07-04T00:50:33.535Z,22.48
2018-07-04T00:51:33.549Z,22.31
2018-07-04T00:52:33.574Z,22.33
2018-07-04T00:53:33.596Z,22.31
2018-07-04T00:54:33.622Z,22.41
2018-07-04T00:55:33.643Z,22.33
2018-07-04T00:56:33.669Z,22.35
2018-07-04T00:57:33.692Z,22.39
2018-07-04T00:58:33.716Z,22.30
2018-07-04T00:59:33.741Z,22.36
2018-07-04T01:00:33.764Z,22.30
2018-07-04T01:01:33.784Z,22.27
2018-07-04T01:02:33.806Z,22.38
2018-07-04T01:03:33.834Z,22.31
2018-07-04T01:04:33.854Z,22.31
2018-07-04T01:05:33.875Z,22.36
2018-07-04T01:06:33.898Z,22.36
2018-07-04T01:07:33.923Z,22.31
2018-07-04T01:08:33.942Z,22.36
2018-07-04T01:09:33.974Z,22.39
2018-07-04T01:10:33.997Z,22.42
2018-07-04T01:11:34.023Z,22.36
2018-07-04T01:12:34.042Z,22.36
2018-07-04T01:13:34.066Z,22.35
2018-07-04T01:14:34.092Z,22.30
2018-07-04T01:15:34.110Z,22.24
2018-07-04T01:16:34.137Z,22.41
2018-07-04T01:17:34.159Z,22.42
2018-07-04T01:18:34.177Z,22.39
2018-07-04T01:19:34.210Z,22.26
2018-07-04T01:20:34.227Z,22.38
2018-07-04T01:21:34.249Z,22.36
2018-07-04T01:22:34.272Z,22.39
2018-07-04T01:23:34.299Z,22.41
2018-07-04T01:24:34.315Z,22.33
2018-07-04T01:25:34.342Z,22.38
2018-07-04T01:26:34.365Z,22.31
2018-07-04T01:27:34.389Z,22.21
2018-07-04T01:28:34.411Z,22.21
2018-07-04T01:29:34.433Z,22.20
2018-07-04T01:30:34.455Z,22.35
2018-07-04T01:31:34.481Z,22.26
2018-07-04T01:32:34.509Z,22.39
2018-07-04T01:33:34.528Z,22.36
2018-07-04T01:34:34.555Z,22.24
2018-07-04T01:35:34.570Z,22.19
2018-07-04T01:36:34.596Z,22.30
2018-07-04T01:37:34.620Z,22.33
2018-07-04T01:38:34.643Z,22.33
2018-07-04T01:39:34.667Z,22.21
2018-07-04T01:40:34.691Z,22.24
2018-07-04T01:41:34.714Z,22.26
2018-07-04T01:42:34.736Z,22.24
2018-07-04T01:43:34.764Z,22.26
2018-07-04T01:44:34.784Z,22.27
2018-07-04T01:45:34.807Z,22.33
2018-07-04T01:46:34.825Z,22.21
2018-07-04T01:47:34.848Z,22.19
2018-07-04T01:48:34.871Z,22.24
2018-07-04T01:49:34.897Z,22.27
2018-07-04T01:50:34.922Z,22.29
2018-07-04T01:51:34.943Z,22.19
2018-07-04T01:52:34.966Z,22.31
2018-07-04T01:53:34.987Z,22.29
2018-07-04T01:54:35.024Z,22.19
2018-07-04T01:55:35.041Z,22.30
2018-07-04T01:56:35.060Z,22.23
2018-07-04T01:57:35.079Z,22.30
2018-07-04T01:58:35.102Z,22.23
2018-07-04T01:59:35.132Z,22.24
2018-07-04T02:00:35.154Z,22.23
2018-07-04T02:01:35.174Z,22.17
2018-07-04T02:02:35.198Z,22.24
2018-07-04T02:03:35.222Z,22.30
2018-07-04T02:04:35.243Z,22.21
2018-07-04T02:05:35.272Z,22.24
2018-07-04T02:06:35.293Z,22.29
2018-07-04T02:07:35.314Z,22.29
2018-07-04T02:08:35.333Z,22.20
2018-07-04T02:09:35.363Z,22.29
2018-07-04T02:10:35.385Z,22.24
2018-07-04T02:11:35.411Z,22.29
2018-07-04T02:12:35.432Z,22.29
2018-07-04T02:13:35.455Z,22.27
2018-07-04T02:14:35.478Z,22.23
2018-07-04T02:15:35.502Z,22.29
2018-07-04T02:16:35.525Z,22.29
2018-07-04T02:17:35.544Z,22.26
2018-07-04T02:18:35.573Z,22.23
2018-07-04T02:19:35.588Z,22.30
2018-07-04T02:20:35.613Z,22.26
2018-07-04T02:21:35.644Z,22.17
2018-07-04T02:22:35.664Z,22.21
2018-07-04T02:23:35.684Z,22.29
2018-07-04T02:24:35.705Z,22.21
2018-07-04T02:25:35.738Z,22.30
2018-07-04T02:26:35.757Z,22.26
2018-07-04T02:27:35.782Z,22.29
2018-07-04T02:28:35.801Z,22.27
2018-07-04T02:29:35.821Z,22.31
2018-07-04T02:30:35.844Z,22.26
2018-07-04T02:31:35.873Z,22.26
2018-07-04T02:32:35.894Z,22.29
2018-07-04T02:33:35.907Z,22.26
2018-07-04T02:34:35.940Z,22.27
2018-07-04T02:35:35.958Z,22.27
2018-07-04T02:36:35.981Z,22.27
2018-07-04T02:37:36.008Z,22.29
2018-07-04T02:38:36.035Z,22.21
2018-07-04T02:39:36.054Z,22.24
2018-07-04T02:40:36.083Z,22.27
2018-07-04T02:41:36.104Z,22.31
2018-07-04T02:42:36.126Z,22.29
2018-07-04T02:43:36.148Z,22.27
2018-07-04T02:44:36.175Z,22.29
2018-07-04T02:45:36.191Z,22.31
2018-07-04T02:46:36.213Z,22.27
2018-07-04T02:47:36.241Z,22.21
2018-07-04T02:48:36.264Z,22.29
2018-07-04T02:49:36.283Z,22.24
2018-07-04T02:50:36.304Z,22.23
2018-07-04T02:51:36.329Z,22.26
2018-07-04T02:52:36.350Z,22.23
2018-07-04T02:53:36.382Z,22.21
2018-07-04T02:54:36.406Z,22.27
2018-07-04T02:55:36.427Z,22.30
2018-07-04T02:56:36.444Z,22.29
2018-07-04T02:57:36.475Z,22.29
2018-07-04T02:58:36.492Z,22.29
2018-07-04T02:59:36.520Z,22.20
2018-07-04T03:00:36.543Z,22.29
2018-07-04T03:01:36.563Z,22.20
2018-07-04T03:02:36.585Z,22.26
2018-07-04T03:03:36.618Z,22.21
2018-07-04T03:04:36.630Z,22.19
2018-07-04T03:05:36.653Z,22.23
2018-07-04T03:06:36.681Z,22.24
2018-07-04T03:07:36.700Z,22.23
2018-07-04T03:08:36.722Z,22.21
2018-07-04T03:09:36.749Z,22.12
2018-07-04T03:10:36.773Z,22.19
2018-07-04T03:11:36.794Z,22.21
2018-07-04T03:12:36.821Z,22.19
2018-07-04T03:13:36.844Z,22.09
2018-07-04T03:14:36.868Z,22.19
2018-07-04T03:15:36.888Z,22.20
2018-07-04T03:16:36.910Z,22.20
2018-07-04T03:17:36.930Z,22.21
2018-07-04T03:18:36.953Z,22.27
2018-07-04T03:19:36.979Z,22.23
2018-07-04T03:20:37.003Z,22.20
2018-07-04T03:21:37.022Z,22.33
2018-07-04T03:22:37.048Z,22.42
2018-07-04T03:23:37.072Z,22.41
2018-07-04T03:24:37.093Z,22.46
2018-07-04T03:25:37.121Z,22.60
2018-07-04T03:26:37.143Z,22.57
2018-07-04T03:27:37.161Z,22.66
2018-07-04T03:28:37.184Z,22.69
2018-07-04T03:29:37.212Z,22.78
2018-07-04T03:30:37.235Z,22.89
2018-07-04T03:31:37.262Z,22.99
2018-07-04T03:32:37.283Z,23.01
2018-07-04T03:33:37.305Z,23.04
2018-07-04T03:34:37.327Z,23.22
2018-07-04T03:35:37.351Z,23.38
2018-07-04T03:36:37.372Z,23.54
2018-07-04T03:37:37.401Z,23.57
2018-07-04T03:38:37.423Z,23.69
2018-07-04T03:39:37.446Z,23.89
2018-07-04T03:40:37.469Z,23.82
2018-07-04T03:41:37.492Z,23.81
2018-07-04T03:42:37.510Z,23.87
2018-07-04T03:43:37.542Z,23.81
2018-07-04T03:44:37.570Z,23.84
2018-07-04T03:45:37.585Z,23.79
2018-07-04T03:46:37.610Z,23.84
2018-07-04T03:47:37.636Z,23.84
2018-07-04T03:48:37.652Z,23.89
2018-07-04T03:49:37.682Z,23.96
2018-07-04T03:50:37.709Z,24.02
2018-07-04T03:51:37.727Z,24.06
2018-07-04T03:52:37.757Z,24.11
2018-07-04T03:53:37.778Z,24.26
2018-07-04T03:54:37.802Z,24.52
2018-07-04T03:55:37.830Z,24.70
2018-07-04T03:56:37.854Z,24.93
2018-07-04T03:57:37.873Z,25.11
2018-07-04T03:58:37.897Z,25.35
2018-07-04T03:59:37.926Z,25.54
2018-07-04T04:00:37.947Z,25.69
2018-07-04T04:01:37.969Z,25.91
2018-07-04T04:02:37.994Z,26.06
2018-07-04T04:03:38.021Z,26.23
2018-07-04T04:04:38.044Z,26.41
2018-07-04T04:05:38.073Z,26.64
2018-07-04T04:06:38.096Z,26.76
2018-07-04T04:07:38.118Z,27.01
2018-07-04T04:08:38.142Z,27.21
2018-07-04T04:09:38.169Z,27.35
2018-07-04T04:10:38.194Z,27.46
2018-07-04T04:11:38.218Z,27.68
2018-07-04T04:12:38.242Z,27.83
2018-07-04T04:13:38.265Z,28.06
2018-07-04T04:14:38.294Z,28.24
2018-07-04T04:15:38.321Z,28.39
2018-07-04T04:16:38.349Z,28.50
2018-07-04T04:17:38.366Z,28.67
2018-07-04T04:18:38.392Z,28.79
2018-07-04T04:19:38.417Z,28.94
2018-07-04T04:20:38.440Z,29.07
2018-07-04T04:21:38.470Z,29.25
2018-07-04T04:22:38.496Z,29.35
2018-07-04T04:23:38.517Z,29.51
2018-07-04T04:24:38.541Z,29.64
2018-07-04T04:25:38.572Z,29.71
2018-07-04T04:26:38.599Z,29.95
2018-07-04T04:27:38.629Z,30.10
2018-07-04T04:28:38.654Z,30.15
2018-07-04T04:29:38.678Z,30.26
2018-07-04T04:30:38.706Z,30.37
2018-07-04T04:31:38.732Z,30.51
2018-07-04T04:32:38.757Z,30.66
2018-07-04T04:33:38.782Z,30.76
2018-07-04T04:34:38.812Z,30.90
2018-07-04T04:35:38.838Z,31.07
2018-07-04T04:36:38.865Z,31.16
2018-07-04T04:37:38.898Z,31.27
2018-07-04T04:38:38.923Z,31.27
2018-07-04T04:39:38.949Z,31.41
2018-07-04T04:40:38.973Z,31.69
2018-07-04T04:41:39.005Z,31.68
2018-07-04T04:42:39.031Z,31.88
2018-07-04T04:43:39.061Z,31.92
2018-07-04T04:44:39.096Z,32.16
2018-07-04T04:45:39.114Z,32.39
2018-07-04T04:46:39.143Z,32.58
2018-07-04T04:47:39.174Z,32.65
2018-07-04T04:48:39.209Z,32.85
2018-07-04T04:49:39.226Z,32.99
2018-07-04T04:50:39.256Z,33.18
2018-07-04T04:51:39.289Z,33.17
2018-07-04T04:52:39.319Z,33.20
2018-07-04T04:53:39.352Z,33.28
2018-07-04T04:54:39.378Z,33.29
2018-07-04T04:55:39.404Z,33.52
2018-07-04T04:56:39.438Z,33.62
2018-07-04T04:57:39.465Z,33.71
2018-07-04T04:58:39.493Z,33.77
2018-07-04T04:59:39.526Z,33.81
2018-07-04T05:00:39.569Z,33.93
2018-07-04T05:01:39.581Z,34.05
2018-07-04T05:02:39.612Z,34.08
2018-07-04T05:03:39.648Z,34.26
2018-07-04T05:04:39.677Z,34.15
2018-07-04T05:05:39.707Z,34.21
2018-07-04T05:06:39.734Z,34.06
2018-07-04T05:07:39.767Z,34.06
2018-07-04T05:08:39.795Z,33.81
2018-07-04T05:09:39.828Z,33.63
2018-07-04T05:10:39.865Z,33.34
2018-07-04T05:11:39.888Z,33.18
2018-07-04T05:12:39.917Z,32.90
2018-07-04T05:13:39.953Z,32.68
2018-07-04T05:14:39.986Z,32.41
2018-07-04T05:15:40.041Z,32.27
2018-07-04T05:16:40.050Z,32.06
2018-07-04T05:17:40.077Z,31.87
2018-07-04T05:18:40.109Z,31.76
2018-07-04T05:19:40.143Z,31.68
2018-07-04T05:20:40.173Z,31.56
2018-07-04T05:21:40.202Z,31.46
2018-07-04T05:22:40.254Z,31.53
2018-07-04T05:23:40.269Z,31.30
2018-07-04T05:24:40.302Z,31.25
2018-07-04T05:25:40.336Z,31.22
2018-07-04T05:26:40.369Z,31.13
2018-07-04T05:27:40.398Z,31.00
2018-07-04T05:28:40.428Z,30.98
2018-07-04T05:29:40.464Z,30.86
2018-07-04T05:30:40.496Z,30.96
2018-07-04T05:31:40.528Z,30.88
2018-07-04T05:32:40.558Z,30.83
2018-07-04T05:33:40.587Z,30.75
2018-07-04T05:34:40.625Z,30.72
2018-07-04T05:35:40.656Z,30.67
2018-07-04T05:36:40.688Z,30.54
2018-07-04T05:37:40.718Z,30.64
2018-07-04T05:38:40.749Z,30.59
2018-07-04T05:39:40.779Z,30.53
2018-07-04T05:40:40.809Z,30.60
2018-07-04T05:41:40.845Z,30.48
2018-07-04T05:42:40.877Z,30.59
2018-07-04T05:43:40.908Z,30.78
2018-07-04T05:44:40.939Z,31.00
2018-07-04T05:45:40.972Z,31.53
2018-07-04T05:46:40.996Z,31.91
2018-07-04T05:47:41.093Z,32.22
2018-07-04T05:48:41.059Z,32.56
2018-07-04T05:49:41.093Z,32.78
2018-07-04T05:50:41.128Z,33.06
2018-07-04T05:51:41.154Z,33.15
2018-07-04T05:52:41.182Z,33.34
2018-07-04T05:53:41.217Z,33.57
2018-07-04T05:54:41.244Z,33.65
2018-07-04T05:55:41.277Z,33.71
2018-07-04T05:56:41.307Z,34.00
2018-07-04T05:57:41.333Z,34.16
2018-07-04T05:58:41.363Z,34.23
2018-07-04T05:59:41.399Z,34.36
2018-07-04T06:00:41.443Z,34.38
2018-07-04T06:01:41.453Z,34.55
2018-07-04T06:02:41.509Z,34.63
2018-07-04T06:03:41.512Z,34.65
2018-07-04T06:04:41.542Z,34.64
2018-07-04T06:05:41.575Z,34.69
2018-07-04T06:06:41.620Z,34.76
2018-07-04T06:07:41.633Z,34.83
2018-07-04T06:08:41.666Z,34.87
2018-07-04T06:09:41.694Z,34.93
2018-07-04T06:10:41.730Z,35.00
2018-07-04T06:11:41.757Z,35.15
2018-07-04T06:12:41.788Z,35.10
2018-07-04T06:13:41.812Z,35.15
2018-07-04T06:14:41.844Z,35.20
2018-07-04T06:15:41.879Z,35.18
2018-07-04T06:16:41.905Z,35.22
2018-07-04T06:17:42.012Z,35.18
2018-07-04T06:18:41.965Z,35.25
2018-07-04T06:19:41.998Z,35.37
2018-07-04T06:20:42.029Z,35.29
2018-07-04T06:21:42.067Z,35.32
2018-07-04T06:22:42.095Z,35.39
2018-07-04T06:23:42.123Z,35.37
2018-07-04T06:24:42.179Z,35.31
2018-07-04T06:25:42.190Z,35.27
2018-07-04T06:26:42.226Z,35.22
2018-07-04T06:27:42.254Z,35.10
2018-07-04T06:28:42.282Z,34.48
2018-07-04T06:29:42.311Z,33.60
2018-07-04T06:30:42.343Z,32.90
2018-07-04T06:31:42.378Z,32.49
2018-07-04T06:32:42.410Z,31.99
2018-07-04T06:33:42.441Z,31.78
2018-07-04T06:34:42.467Z,31.41
2018-07-04T06:35:42.500Z,31.22
2018-07-04T06:36:42.535Z,31.01
2018-07-04T06:37:42.568Z,30.81
2018-07-04T06:38:42.597Z,30.63
2018-07-04T06:39:42.627Z,30.45
2018-07-04T06:40:42.657Z,30.29
2018-07-04T06:41:42.692Z,30.19
2018-07-04T06:42:42.723Z,30.08
2018-07-04T06:43:42.752Z,29.91
2018-07-04T06:44:42.780Z,29.84
2018-07-04T06:45:42.811Z,29.67
2018-07-04T06:46:42.838Z,29.58
2018-07-04T06:47:42.873Z,29.41
2018-07-04T06:48:42.916Z,29.35
2018-07-04T06:49:42.933Z,29.33
2018-07-04T06:50:42.966Z,29.27
2018-07-04T06:51:42.991Z,29.11
2018-07-04T06:52:43.019Z,29.18
2018-07-04T06:53:43.051Z,29.10
2018-07-04T06:54:43.073Z,28.89
2018-07-04T06:55:43.109Z,28.80
2018-07-04T06:56:43.147Z,28.77
2018-07-04T06:57:43.174Z,28.77
2018-07-04T06:58:43.218Z,28.67
2018-07-04T06:59:43.226Z,28.60
2018-07-04T07:00:43.250Z,28.52
2018-07-04T07:01:43.280Z,28.51
2018-07-04T07:02:43.317Z,28.54
2018-07-04T07:03:43.344Z,28.38
2018-07-04T07:04:43.365Z,28.40
2018-07-04T07:05:43.396Z,28.39
2018-07-04T07:06:43.427Z,28.25
2018-07-04T07:07:43.455Z,28.20
2018-07-04T07:08:43.489Z,28.17
2018-07-04T07:09:43.517Z,28.23
2018-07-04T07:10:43.540Z,28.15
2018-07-04T07:11:43.602Z,28.06
2018-07-04T07:12:43.600Z,28.05
2018-07-04T07:13:43.627Z,28.03
2018-07-04T07:14:43.659Z,27.93
2018-07-04T07:15:43.683Z,27.88
2018-07-04T07:16:43.707Z,27.95
2018-07-04T07:17:43.743Z,27.86
2018-07-04T07:18:43.773Z,27.86
2018-07-04T07:19:43.795Z,27.83
2018-07-04T07:20:43.822Z,27.74
2018-07-04T07:21:43.854Z,27.69
2018-07-04T07:22:43.876Z,27.61
2018-07-04T07:23:43.903Z,27.63
2018-07-04T07:24:43.931Z,27.61
2018-07-04T07:25:43.960Z,27.52
2018-07-04T07:26:43.996Z,27.42
2018-07-04T07:27:44.013Z,27.46
2018-07-04T07:28:44.046Z,27.42
2018-07-04T07:29:44.074Z,27.39
2018-07-04T07:30:44.096Z,27.35
2018-07-04T07:31:44.123Z,27.33
2018-07-04T07:32:44.148Z,27.27
2018-07-04T07:33:44.175Z,27.35
2018-07-04T07:34:44.209Z,27.27
2018-07-04T07:35:44.240Z,27.21
2018-07-04T07:36:44.258Z,27.18
2018-07-04T07:37:44.284Z,27.23
2018-07-04T07:38:44.313Z,27.21
2018-07-04T07:39:44.352Z,27.01
2018-07-04T07:40:44.387Z,27.02
2018-07-04T07:41:44.398Z,27.06
2018-07-04T07:42:44.422Z,27.02
2018-07-04T07:43:44.450Z,27.01
2018-07-04T07:44:44.475Z,26.98
2018-07-04T07:45:44.502Z,26.88
2018-07-04T07:46:44.530Z,26.90
2018-07-04T07:47:44.556Z,26.84
2018-07-04T07:48:44.633Z,26.81
2018-07-04T07:49:44.610Z,26.81
2018-07-04T07:50:44.642Z,26.73
2018-07-04T07:51:44.666Z,26.83
2018-07-04T07:52:44.684Z,26.81
2018-07-04T07:53:44.716Z,26.66
2018-07-04T07:54:44.743Z,26.68
2018-07-04T07:55:44.768Z,26.68
2018-07-04T07:56:44.798Z,26.65
2018-07-04T07:57:44.824Z,26.64
2018-07-04T07:58:44.847Z,26.57
2018-07-04T07:59:44.938Z,26.53
2018-07-04T08:00:44.983Z,26.47
2018-07-04T08:01:45.003Z,26.53
2018-07-04T08:02:44.999Z,26.49
2018-07-04T08:03:44.984Z,26.51
2018-07-04T08:04:45.011Z,26.41
2018-07-04T08:05:45.041Z,26.35
2018-07-04T08:06:45.065Z,26.46
2018-07-04T08:07:45.094Z,26.38
2018-07-04T08:08:45.115Z,26.35
2018-07-04T08:09:45.143Z,26.36
2018-07-04T08:10:45.168Z,26.35
2018-07-04T08:11:45.189Z,26.34
2018-07-04T08:12:45.251Z,26.32
2018-07-04T08:13:45.248Z,26.35
2018-07-04T08:14:45.273Z,26.28
2018-07-04T08:15:45.300Z,26.27
2018-07-04T08:16:45.327Z,26.31
2018-07-04T08:17:45.354Z,26.23
2018-07-04T08:18:45.421Z,26.20
2018-07-04T08:19:45.404Z,26.17
2018-07-04T08:20:45.428Z,26.12
2018-07-04T08:21:45.455Z,26.09
2018-07-04T08:22:45.480Z,26.11
2018-07-04T08:23:45.505Z,26.03
2018-07-04T08:24:45.535Z,26.12
2018-07-04T08:25:45.564Z,26.06
2018-07-04T08:26:45.587Z,26.03
2018-07-04T08:27:45.611Z,26.03
2018-07-04T08:28:45.642Z,26.00
2018-07-04T08:29:45.666Z,26.01
2018-07-04T08:30:45.690Z,25.97
2018-07-04T08:31:45.718Z,25.85
2018-07-04T08:32:45.742Z,26.00
2018-07-04T08:33:45.763Z,26.00
2018-07-04T08:34:45.799Z,25.89
2018-07-04T08:35:45.821Z,25.93
2018-07-04T08:36:45.844Z,25.91
2018-07-04T08:37:45.879Z,25.85
2018-07-04T08:38:45.898Z,25.86
2018-07-04T08:39:45.925Z,25.83
2018-07-04T08:40:45.948Z,25.86
2018-07-04T08:41:45.969Z,25.85
2018-07-04T08:42:45.998Z,25.81
2018-07-04T08:43:46.026Z,25.72
2018-07-04T08:44:46.108Z,25.75
2018-07-04T08:45:46.078Z,25.74
2018-07-04T08:46:46.105Z,25.71
2018-07-04T08:47:46.175Z,25.75
2018-07-04T08:48:46.167Z,25.69
2018-07-04T08:49:46.187Z,25.72
2018-07-04T08:50:46.307Z,25.71
2018-07-04T08:51:46.237Z,25.63
2018-07-04T08:52:46.272Z,25.59
2018-07-04T08:53:46.282Z,25.60
2018-07-04T08:54:46.311Z,25.59
2018-07-04T08:55:46.339Z,25.57
2018-07-04T08:56:46.361Z,25.57
2018-07-04T08:57:46.390Z,25.57
2018-07-04T08:58:46.417Z,25.56
2018-07-04T08:59:46.436Z,25.57
2018-07-04T09:00:46.464Z,25.51
2018-07-04T09:01:46.493Z,25.51
2018-07-04T09:02:46.511Z,25.59
2018-07-04T09:03:46.539Z,25.54
2018-07-04T09:04:46.577Z,25.56
2018-07-04T09:05:46.598Z,25.48
2018-07-04T09:06:46.713Z,25.53
2018-07-04T09:07:46.645Z,25.48
2018-07-04T09:08:46.667Z,25.48
2018-07-04T09:09:46.693Z,25.53
2018-07-04T09:10:46.722Z,25.44
2018-07-04T09:11:46.779Z,25.46
2018-07-04T09:12:46.766Z,25.46
2018-07-04T09:13:46.806Z,25.45
2018-07-04T09:14:46.819Z,25.44
2018-07-04T09:15:46.854Z,25.45
2018-07-04T09:16:46.881Z,25.42
2018-07-04T09:17:46.902Z,25.49
2018-07-04T09:18:46.922Z,25.42
2018-07-04T09:19:46.970Z,25.42
2018-07-04T09:20:46.974Z,25.41
2018-07-04T09:21:47.000Z,25.41
2018-07-04T09:22:47.028Z,25.39
2018-07-04T09:23:47.096Z,25.36
2018-07-04T09:24:47.078Z,25.35
2018-07-04T09:25:47.161Z,25.27
2018-07-04T09:26:47.134Z,25.34
2018-07-04T09:27:47.156Z,25.31
2018-07-04T09:28:47.181Z,25.31
2018-07-04T09:29:47.202Z,25.22
2018-07-04T09:30:47.221Z,25.36
2018-07-04T09:31:47.249Z,25.34
2018-07-04T09:32:47.283Z,25.29
2018-07-04T09:33:47.307Z,25.29
2018-07-04T09:34:47.346Z,25.17
2018-07-04T09:35:47.343Z,25.17
2018-07-04T09:36:47.384Z,25.20
2018-07-04T09:37:47.421Z,25.20
2018-07-04T09:38:47.428Z,25.19
2018-07-04T09:39:47.484Z,25.24
2018-07-04T09:40:47.489Z,25.20
2018-07-04T09:41:48.270Z,25.23
2018-07-04T09:42:47.533Z,25.20
2018-07-04T09:43:47.617Z,25.22
2018-07-04T09:44:47.577Z,25.23
2018-07-04T09:45:47.626Z,25.11
2018-07-04T09:46:47.621Z,25.23
2018-07-04T09:47:48.371Z,25.16
2018-07-04T09:48:47.680Z,25.19
2018-07-04T09:49:47.718Z,25.20
2018-07-04T09:50:47.762Z,25.17
2018-07-04T09:51:47.771Z,25.23
2018-07-04T09:52:47.779Z,25.05
2018-07-04T09:53:47.834Z,25.19
2018-07-04T09:54:47.839Z,25.20
2018-07-04T09:55:47.917Z,25.17
2018-07-04T09:56:47.907Z,25.08
2018-07-04T09:57:48.932Z,25.09
2018-07-04T09:58:47.981Z,25.17
2018-07-04T09:59:47.979Z,25.16
2018-07-04T10:00:47.991Z,25.12
2018-07-04T10:01:48.052Z,25.12
2018-07-04T10:02:48.046Z,25.08
2018-07-04T10:03:48.059Z,25.07
2018-07-04T10:04:48.086Z,25.14
2018-07-04T10:05:48.214Z,25.14
2018-07-04T10:06:48.133Z,25.11
2018-07-04T10:07:48.159Z,24.99
2018-07-04T10:08:48.184Z,25.05
2018-07-04T10:09:48.205Z,25.02
2018-07-04T10:10:48.228Z,25.02
2018-07-04T10:11:48.256Z,25.04
2018-07-04T10:12:48.284Z,25.05
2018-07-04T10:13:48.311Z,25.05
2018-07-04T10:14:48.352Z,25.07
2018-07-04T10:15:48.354Z,25.01
2018-07-04T10:16:48.381Z,25.05
2018-07-04T10:17:48.404Z,24.99
2018-07-04T10:18:48.433Z,24.94
2018-07-04T10:19:48.461Z,25.02
2018-07-04T10:20:48.479Z,25.02
2018-07-04T10:21:48.506Z,24.97
2018-07-04T10:22:48.531Z,24.98
2018-07-04T10:23:48.557Z,25.01
2018-07-04T10:24:48.579Z,24.94
2018-07-04T10:25:48.604Z,24.98
2018-07-04T10:26:48.631Z,24.97
2018-07-04T10:27:48.657Z,24.98
2018-07-04T10:28:48.687Z,24.97
2018-07-04T10:29:48.707Z,25.02
2018-07-04T10:30:48.726Z,24.93
2018-07-04T10:31:48.755Z,24.98
2018-07-04T10:32:48.796Z,24.98
2018-07-04T10:33:48.807Z,24.99
2018-07-04T10:34:48.828Z,24.98
2018-07-04T10:35:48.868Z,25.01
2018-07-04T10:36:48.870Z,24.94
2018-07-04T10:37:48.907Z,24.93
2018-07-04T10:38:48.935Z,24.98
2018-07-04T10:39:48.959Z,24.93
2018-07-04T10:40:48.981Z,24.98
2018-07-04T10:41:49.003Z,24.92
2018-07-04T10:42:49.029Z,24.93
2018-07-04T10:43:49.061Z,24.93
2018-07-04T10:44:49.149Z,24.89
2018-07-04T10:45:49.109Z,24.87
2018-07-04T10:46:49.129Z,24.80
2018-07-04T10:47:49.192Z,24.98
2018-07-04T10:48:49.179Z,24.90
2018-07-04T10:49:49.221Z,24.84
2018-07-04T10:50:49.229Z,24.80
2018-07-04T10:51:49.256Z,24.87
2018-07-04T10:52:49.397Z,24.83
2018-07-04T10:53:49.307Z,24.89
2018-07-04T10:54:49.333Z,24.83
2018-07-04T10:55:49.360Z,24.87
2018-07-04T10:56:49.374Z,24.86
2018-07-04T10:57:49.757Z,24.83
2018-07-04T10:58:49.426Z,24.87
2018-07-04T10:59:49.448Z,24.82
2018-07-04T11:00:49.479Z,24.75
2018-07-04T11:01:49.508Z,24.89
2018-07-04T11:02:49.523Z,24.83
2018-07-04T11:03:49.558Z,24.82
2018-07-04T11:04:49.584Z,24.71
2018-07-04T11:05:49.604Z,24.77
2018-07-04T11:06:49.630Z,24.70
2018-07-04T11:07:49.668Z,24.75
2018-07-04T11:08:49.688Z,24.77
2018-07-04T11:09:49.714Z,24.79
2018-07-04T11:10:49.726Z,24.77
2018-07-04T11:11:49.751Z,24.83
2018-07-04T11:12:49.779Z,24.75
2018-07-04T11:13:49.792Z,24.75
2018-07-04T11:14:49.828Z,24.74
2018-07-04T11:15:49.853Z,24.71
2018-07-04T11:16:49.951Z,24.70
2018-07-04T11:17:49.901Z,24.75
2018-07-04T11:18:49.924Z,24.75
2018-07-04T11:19:49.954Z,24.70
2018-07-04T11:20:50.027Z,24.74
2018-07-04T11:21:50.017Z,24.77
2018-07-04T11:22:50.030Z,24.75
2018-07-04T11:23:50.048Z,24.80
2018-07-04T11:24:50.261Z,24.70
2018-07-04T11:25:50.097Z,24.75
2018-07-04T11:26:50.125Z,24.68
2018-07-04T11:27:50.149Z,24.70
2018-07-04T11:28:50.174Z,24.79
2018-07-04T11:29:50.193Z,24.79
2018-07-04T11:30:50.225Z,24.68
2018-07-04T11:31:50.242Z,24.71
2018-07-04T11:32:50.268Z,24.67
2018-07-04T11:33:50.294Z,24.77
2018-07-04T11:34:50.317Z,24.75
2018-07-04T11:35:50.341Z,24.70
2018-07-04T11:36:50.371Z,24.70
2018-07-04T11:37:50.391Z,24.67
2018-07-04T11:38:50.413Z,24.74
2018-07-04T11:39:50.520Z,24.68
2018-07-04T11:40:50.468Z,24.70
2018-07-04T11:41:50.493Z,24.68
2018-07-04T11:42:50.519Z,24.70
2018-07-04T11:43:50.587Z,24.68
2018-07-04T11:44:50.577Z,24.67
2018-07-04T11:45:50.589Z,24.66
2018-07-04T11:46:50.619Z,24.67
2018-07-04T11:47:50.645Z,24.74
2018-07-04T11:48:50.668Z,24.74
2018-07-04T11:49:50.694Z,24.71
2018-07-04T11:50:50.714Z,24.67
2018-07-04T11:51:50.740Z,24.67
2018-07-04T11:52:50.767Z,24.74
2018-07-04T11:53:50.791Z,24.67
2018-07-04T11:54:50.872Z,24.75
2018-07-04T11:55:50.844Z,24.75
2018-07-04T11:56:50.863Z,24.61
2018-07-04T11:57:50.887Z,24.67
2018-07-04T11:58:50.916Z,24.71
2018-07-04T11:59:50.939Z,24.71
2018-07-04T12:00:50.961Z,24.75
2018-07-04T12:01:51.005Z,24.74
2018-07-04T12:02:51.010Z,24.71
2018-07-04T12:03:51.064Z,24.71
2018-07-04T12:04:51.062Z,24.75
2018-07-04T12:05:51.094Z,24.67
2018-07-04T12:06:51.112Z,24.66
2018-07-04T12:07:51.144Z,24.74
2018-07-04T12:08:51.158Z,24.67
2018-07-04T12:09:51.182Z,24.68
2018-07-04T12:10:51.215Z,24.75
2018-07-04T12:11:51.233Z,24.67
2018-07-04T12:12:51.264Z,24.70
2018-07-04T12:13:51.283Z,24.79
2018-07-04T12:14:51.306Z,24.68
2018-07-04T12:15:51.333Z,24.70
2018-07-04T12:16:51.360Z,24.71
2018-07-04T12:17:51.387Z,24.70
2018-07-04T12:18:51.410Z,24.68
2018-07-04T12:19:51.435Z,24.68
2018-07-04T12:20:51.473Z,24.67
2018-07-04T12:21:51.480Z,24.66
2018-07-04T12:22:51.509Z,24.70
2018-07-04T12:23:51.534Z,24.74
2018-07-04T12:24:51.557Z,24.71
2018-07-04T12:25:51.578Z,24.68
2018-07-04T12:26:51.658Z,24.68
2018-07-04T12:27:51.636Z,24.74
2018-07-04T12:28:51.654Z,24.70
2018-07-04T12:29:51.679Z,24.68
2018-07-04T12:30:51.703Z,24.71
2018-07-04T12:31:51.774Z,24.74
2018-07-04T12:32:54.355Z,24.66
2018-07-04T12:33:52.354Z,24.71
2018-07-04T12:34:53.381Z,24.68
2018-07-04T12:35:51.829Z,24.74
2018-07-04T12:36:51.847Z,24.71
2018-07-04T12:37:51.874Z,24.67
2018-07-04T12:38:51.902Z,24.70
2018-07-04T12:39:51.946Z,24.75
2018-07-04T12:40:52.010Z,24.66
2018-07-04T12:41:51.975Z,24.68
2018-07-04T12:42:52.000Z,24.74
2018-07-04T12:43:52.023Z,24.66
2018-07-04T12:44:52.052Z,24.71
2018-07-04T12:45:52.077Z,24.68
2018-07-04T12:46:52.097Z,24.71
2018-07-04T12:47:52.132Z,24.67
2018-07-04T12:48:52.151Z,24.70
2018-07-04T12:49:52.174Z,24.71
2018-07-04T12:50:52.200Z,24.71
2018-07-04T12:51:52.220Z,24.71
2018-07-04T12:52:52.268Z,24.67